Aérodrome :







RETROUVEZ-NOUS SUR...

 
LOGIN :

S'inscrire | Disclaimer

   EN    FR    IT 

 









Légende :    VFR   VFR Marginal   IFR   IFR Intensif   IFR Très Intensif
Visi : 
Plafond : 
>= 8 km
>= 3000ft
5 à 8 km
1000 à 3000 ft
1500m à 5 km
500 à 1000 ft
800 à 1500m
200 à 500 ft
< 800m
< 200 ft
Symboles :   Orages  Brouillard  Fortes neiges  Fortes précipitations  Vent > 20 kt






- Altitude de l'aérodrome : 270 ft
- Code IATA : YMX


CYMX - Montreal International Mirabel

DERNIER METAR :
  • 230100Z 26009G15KT 230V300 25SM BKN034 M02/M09 A2979 RMK SC6 SLP093

METARs EXPIRÉS :
  • 230000Z 27008G15KT 210V320 25SM BKN033 M02/M06 A2976 RMK SC5 SLP084
  • 222300Z 31010G20KT 250V330 25SM BKN039 M01/M08 A2973 RMK SC6 SLP072

TAF TAF CYMX
Valide du 23 à 00h jusqu'au 24 à 00h UTC


222338Z 2300/2324 29012KT P6SM SCT020
TEMPO 2300/2302 BKN020
FM230200 27009KT P6SM FEW030
BECMG 2306/2308 27005KT
FM231400 24005KT P6SM BKN015
BECMG 2316/2318 24008G18KT
BECMG 2320/2322 23006KT RMK NXT FCST BY 230600Z



MET'MAP, la Météo Aéronautique d'un coup d'oeil ! - Copyright ORBIFLY Décembre 2007 - Disclaimer

ORBIFLY MET'MAP TEAM :

Programmation & Développement : Alexandra Zaïnal
Conception & Développement : Baudouin d'Aumeries
Co-Programmation & Développement : Marc-Olivier Méhu
Soutien technique & logistique : Manuel Goepfert

Contact : metmap@orbifly.com




SOURCES & CREDITS :

   NOAA